Billings, MT (59101)

7:03 PM MDT on August 27, 2016 (GMT -0600)
Jupiter Sulphur | | Change Station

Elev 3114 ft 45.78 °N, 108.49 °W | Updated 12 minutes ago

Mostly Cloudy
Mostly Cloudy
84.1 °F
Feels Like 81 °F
N
2.0
Wind Variable Wind from SSW
Gusts 5.0 mph

Today
High -- | Low -- °F
--% Chance of Precip.
Yesterday
High -- | Low -- °F
Precip. -- in
Pressure 29.73 in
Visibility 10.0 miles
Clouds Few 10000 ft
Few 15000 ft
Mostly Cloudy 25000 ft
Heat Index 81 °F
Dew Point 41 °F
Humidity 22%
Rainfall 0.00 in
Snow Depth Not available.
6:29 AM 8:00 PM
Waning Crescent, 20% visible
METAR KBIL 280053Z 21006KT 10SM FEW100 FEW150 BKN250 27/02 A2981 RMK AO2 SLP068 CCSL ACSL DSNT NW-E T02720022
Pressure 29.73 in
Visibility 10.0 miles
Clouds Few 10000 ft
Few 15000 ft
Mostly Cloudy 25000 ft
Heat Index 81 °F
Dew Point 41 °F
Humidity 22%
Rainfall 0.00 in
Snow Depth Not available.
6:29 AM 8:00 PM
Waning Crescent, 20% visible
METAR KBIL 280053Z 21006KT 10SM FEW100 FEW150 BKN250 27/02 A2981 RMK AO2 SLP068 CCSL ACSL DSNT NW-E T02720022

10-Day Weather Forecast

Almanac

Astronomy

Aug. 27, 2016 Rise Set
Actual Time
Civil Twilight
Nautical Twilight
Astronomical Twilight
Moon
Length of Visible Light
Length of Day
Tomorrow will be .
, % of the Moon is Illuminated

Today's Extremes

State Highs State Lows

Community

WunderPhotos

Upload Photos

1,935,479 photos uploaded!

WunderBlog® & News

Nearby

Air Quality

  Air Quality AQ Index Pollutant
Not available.

Snow Depth

Station Depth Elevation

Earthquake Activity

City Distance Mag. Time & Date
Minimum magnitude displayed is 2.5.

Coastal Water Temperatures

Place Temperature

Stations

Nearby Weather Stations

Station Location Temp. Windchill Dew Point Humidity Wind Precip. Elev Updated Type
                   

Watches & Warnings

There are currently no watches in effect.